createdAt,value
2018-03-27T04:36:58.095Z,47.00
2018-03-27T04:39:30.744Z,49.37
2018-03-27T04:42:02.623Z,44.63
2018-03-27T04:44:34.524Z,48.07
2018-03-27T04:47:06.399Z,48.70
2018-03-27T04:49:38.539Z,45.53
2018-03-27T04:52:10.428Z,47.07
2018-03-27T04:54:42.315Z,44.37
2018-03-27T04:57:14.203Z,44.40
2018-03-27T04:59:46.908Z,45.27
2018-03-27T05:02:18.787Z,48.50
2018-03-27T05:04:50.709Z,54.73
2018-03-27T05:07:23.351Z,49.13
2018-03-27T05:09:55.244Z,47.00
2018-03-27T05:12:27.948Z,50.03
2018-03-27T05:15:00.105Z,49.97
2018-03-27T05:17:31.988Z,52.17
2018-03-27T05:20:03.867Z,52.87
2018-03-27T05:22:35.764Z,50.03
2018-03-27T05:25:08.422Z,48.83
2018-03-27T05:27:40.309Z,49.15
2018-03-27T05:30:12.983Z,48.10
2018-03-27T05:32:45.620Z,46.73
2018-03-27T05:35:17.516Z,47.40
2018-03-27T05:37:49.398Z,47.53
2018-03-27T05:40:22.064Z,48.37
2018-03-27T05:42:54.728Z,51.73
2018-03-27T05:45:26.925Z,46.80
2018-03-27T05:47:58.807Z,49.93
2018-03-27T05:50:30.721Z,47.50
2018-03-27T05:53:02.917Z,45.67
2018-03-27T05:55:34.811Z,48.83
2018-03-27T05:58:06.689Z,43.57
2018-03-27T06:00:38.596Z,54.07
2018-03-27T06:03:10.759Z,43.97
2018-03-27T06:05:42.659Z,43.10
2018-03-27T06:08:14.544Z,41.90
2018-03-27T06:10:46.463Z,40.43
2018-03-27T06:13:18.347Z,39.47
2018-03-27T06:15:50.246Z,39.90
2018-03-27T06:18:22.887Z,35.50
2018-03-27T06:20:54.787Z,33.20
2018-03-27T06:23:27.693Z,28.93
2018-03-27T06:26:00.567Z,28.73
2018-03-27T06:28:32.445Z,31.13
2018-03-27T06:31:04.336Z,28.07
2018-03-27T06:33:36.228Z,27.73
2018-03-27T06:36:08.128Z,26.97
2018-03-27T06:38:40.037Z,23.83
2018-03-27T06:41:12.244Z,22.97
2018-03-27T06:43:44.123Z,24.97
2018-03-27T06:46:16.029Z,19.30
2018-03-27T06:48:47.932Z,24.53
2018-03-27T06:51:19.820Z,20.27
2018-03-27T06:53:51.709Z,21.03
2018-03-27T06:56:23.609Z,25.77
2018-03-27T06:58:55.483Z,19.93
2018-03-27T07:01:27.441Z,21.63
2018-03-27T07:03:59.322Z,20.80
2018-03-27T07:06:31.452Z,22.70
2018-03-27T07:09:03.337Z,20.87
2018-03-27T07:11:35.240Z,24.10
2018-03-27T07:14:07.144Z,24.37
2018-03-27T07:16:39.055Z,24.77
2018-03-27T07:19:11.602Z,20.13
2018-03-27T07:21:43.733Z,19.40
2018-03-27T07:24:15.603Z,22.80
2018-03-27T07:26:47.517Z,17.53
2018-03-27T07:29:19.408Z,20.27
2018-03-27T07:31:51.300Z,19.00
2018-03-27T07:34:23.179Z,20.87
2018-03-27T07:36:55.067Z,22.13
2018-03-27T07:39:27.737Z,20.80
2018-03-27T07:41:59.937Z,24.43
2018-03-27T07:44:32.103Z,20.60
2018-03-27T07:47:03.992Z,21.70
2018-03-27T07:49:35.922Z,22.70
2018-03-27T07:52:08.586Z,20.03
2018-03-27T07:54:41.228Z,25.70
2018-03-27T07:57:13.123Z,29.87
2018-03-27T07:59:45.767Z,28.43
2018-03-27T08:02:17.885Z,23.00
2018-03-27T08:04:49.772Z,23.83
2018-03-27T08:07:21.664Z,26.83
2018-03-27T08:09:53.544Z,25.27
2018-03-27T08:12:26.552Z,25.03
2018-03-27T08:14:58.432Z,28.33
2018-03-27T08:17:30.331Z,26.13
2018-03-27T08:20:02.213Z,26.47
2018-03-27T08:22:35.660Z,27.47
2018-03-27T08:25:07.543Z,28.43
2018-03-27T08:27:39.446Z,28.27
2018-03-27T08:30:12.087Z,25.10
2018-03-27T08:32:43.977Z,24.27
2018-03-27T08:35:16.642Z,23.57
2018-03-27T08:37:48.533Z,23.93
2018-03-27T08:40:20.424Z,22.70
2018-03-27T08:42:52.335Z,24.70
2018-03-27T08:45:24.215Z,26.77
2018-03-27T08:47:56.107Z,24.10
2018-03-27T08:50:28.764Z,22.87
2018-03-27T08:53:00.675Z,24.43
2018-03-27T08:55:32.566Z,24.63
2018-03-27T08:58:05.220Z,20.13
2018-03-27T09:00:37.874Z,26.80
2018-03-27T09:03:09.783Z,23.50
2018-03-27T09:05:41.668Z,24.73
2018-03-27T09:08:13.811Z,22.90
2018-03-27T09:10:45.692Z,22.10
2018-03-27T09:13:17.591Z,24.10
2018-03-27T09:15:49.463Z,28.53
2018-03-27T09:18:22.129Z,22.63
2018-03-27T09:20:54.023Z,27.07
2018-03-27T09:23:26.694Z,27.63
2018-03-27T09:25:58.577Z,29.00
2018-03-27T09:28:30.467Z,25.13
2018-03-27T09:31:02.347Z,28.00
2018-03-27T09:33:34.248Z,21.90
2018-03-27T09:36:06.148Z,25.13
2018-03-27T09:38:38.030Z,20.87
2018-03-27T09:41:10.241Z,22.60
2018-03-27T09:43:48.354Z,28.13
2018-03-27T09:46:20.251Z,32.83
2018-03-27T09:48:52.163Z,21.80
2018-03-27T09:51:25.875Z,21.87
2018-03-27T09:53:57.780Z,22.70
2018-03-27T09:56:30.009Z,23.37
2018-03-27T09:59:01.897Z,20.07
2018-03-27T10:01:33.778Z,26.23
2018-03-27T10:04:05.672Z,24.00
2018-03-27T10:06:39.143Z,20.57
2018-03-27T10:09:11.041Z,24.20
2018-03-27T10:11:42.920Z,25.37
2018-03-27T10:14:15.062Z,25.20
2018-03-27T10:16:46.935Z,22.17
2018-03-27T10:19:18.831Z,22.50
2018-03-27T10:21:50.724Z,18.33
2018-03-27T10:24:23.379Z,18.43
2018-03-27T10:26:55.267Z,16.70
2018-03-27T10:29:27.947Z,16.50
2018-03-27T10:32:00.841Z,19.57
2018-03-27T10:34:32.727Z,14.87
2018-03-27T10:37:04.620Z,16.10
2018-03-27T10:39:36.522Z,16.33
2018-03-27T10:42:11.181Z,14.57
2018-03-27T10:44:43.746Z,16.50
2018-03-27T10:47:15.704Z,12.17
2018-03-27T10:49:51.282Z,15.33
2018-03-27T10:52:25.317Z,15.37
2018-03-27T10:54:58.838Z,15.43
2018-03-27T10:57:31.471Z,13.47
2018-03-27T11:00:05.937Z,15.20
2018-03-27T11:02:38.540Z,15.40
2018-03-27T11:05:11.961Z,14.37
2018-03-27T11:07:44.725Z,13.23
2018-03-27T11:10:16.661Z,13.00
2018-03-27T11:12:48.542Z,12.30
2018-03-27T11:15:20.436Z,12.83
2018-03-27T11:17:52.336Z,12.53
2018-03-27T11:20:24.232Z,15.53
2018-03-27T11:22:56.135Z,13.83
2018-03-27T11:25:28.807Z,14.60
2018-03-27T11:28:00.729Z,15.80
2018-03-27T11:30:32.645Z,14.10
2018-03-27T11:33:04.538Z,13.53
2018-03-27T11:35:36.419Z,16.63
2018-03-27T11:38:08.313Z,17.40
2018-03-27T11:40:40.204Z,15.00
2018-03-27T11:43:12.365Z,15.27
2018-03-27T11:45:44.282Z,15.30
2018-03-27T11:48:16.607Z,17.00
2018-03-27T11:50:48.760Z,15.63
2018-03-27T11:53:20.665Z,14.57
2018-03-27T11:55:52.581Z,15.33
2018-03-27T11:58:24.463Z,15.83
2018-03-27T12:00:56.369Z,13.80
2018-03-27T12:03:28.483Z,19.13
2018-03-27T12:06:00.394Z,16.80
2018-03-27T12:08:32.284Z,16.73
2018-03-27T12:11:05.186Z,19.10
2018-03-27T12:13:37.071Z,15.90
2018-03-27T12:16:08.977Z,18.70
2018-03-27T12:18:40.850Z,19.07
2018-03-27T12:21:13.590Z,15.33
2018-03-27T12:23:45.504Z,20.30
2018-03-27T12:26:17.407Z,18.07
2018-03-27T12:28:49.299Z,21.63
2018-03-27T12:31:21.961Z,19.80
2018-03-27T12:33:54.268Z,22.37
2018-03-27T12:36:26.169Z,22.93
2018-03-27T12:38:58.060Z,20.57
2018-03-27T12:41:29.972Z,22.00
2018-03-27T12:44:01.893Z,31.47
2018-03-27T12:46:34.552Z,22.27
2018-03-27T12:49:06.440Z,21.63
2018-03-27T12:51:38.359Z,24.70
2018-03-27T12:54:10.256Z,22.00
2018-03-27T12:56:43.464Z,23.80
2018-03-27T12:59:15.390Z,22.77
2018-03-27T13:01:48.902Z,22.10
2018-03-27T13:04:20.801Z,23.33
2018-03-27T13:06:52.707Z,23.50
2018-03-27T13:09:24.584Z,23.30
2018-03-27T13:11:57.252Z,20.93
2018-03-27T13:14:29.138Z,23.80
2018-03-27T13:17:01.044Z,21.77
2018-03-27T13:19:32.937Z,18.77
2018-03-27T13:22:05.745Z,20.00
2018-03-27T13:24:37.618Z,17.50
2018-03-27T13:27:09.523Z,18.20
2018-03-27T13:29:41.454Z,18.50
2018-03-27T13:32:13.415Z,16.80
2018-03-27T13:34:45.255Z,21.03
2018-03-27T13:37:17.620Z,17.93
2018-03-27T13:39:49.533Z,17.20
2018-03-27T13:42:21.419Z,19.23
2018-03-27T13:44:54.088Z,16.33
2018-03-27T13:47:26.071Z,17.43
2018-03-27T13:49:58.740Z,17.33
2018-03-27T13:52:31.408Z,24.80
2018-03-27T13:55:03.292Z,19.37
2018-03-27T13:57:35.230Z,22.60
2018-03-27T14:00:08.610Z,16.57
2018-03-27T14:02:40.513Z,14.83
2018-03-27T14:05:12.681Z,16.27
2018-03-27T14:07:44.604Z,18.53
2018-03-27T14:10:16.810Z,19.17
2018-03-27T14:12:48.706Z,17.77
2018-03-27T14:15:20.617Z,17.20
2018-03-27T14:17:52.821Z,17.77
2018-03-27T14:20:24.698Z,17.93
2018-03-27T14:22:57.420Z,18.83
2018-03-27T14:25:29.333Z,19.07
2018-03-27T14:28:01.461Z,18.43
2018-03-27T14:30:33.363Z,21.20
2018-03-27T14:33:05.273Z,20.50
2018-03-27T14:35:37.940Z,17.83
2018-03-27T14:38:10.875Z,19.23
2018-03-27T14:40:42.771Z,19.20
2018-03-27T14:43:15.534Z,17.83
2018-03-27T14:45:47.657Z,19.90
2018-03-27T14:48:19.560Z,19.80
2018-03-27T14:50:51.434Z,19.47
2018-03-27T14:53:23.640Z,18.57
2018-03-27T14:55:55.535Z,21.07
2018-03-27T14:58:27.670Z,19.03
2018-03-27T15:00:59.573Z,20.50
2018-03-27T15:03:31.720Z,23.90
2018-03-27T15:06:03.866Z,21.67
2018-03-27T15:08:35.768Z,25.17
2018-03-27T15:11:07.797Z,21.10
2018-03-27T15:13:39.712Z,23.00
2018-03-27T15:16:11.914Z,24.27
2018-03-27T15:18:43.817Z,26.57
2018-03-27T15:21:15.720Z,23.40
2018-03-27T15:23:48.390Z,27.53
2018-03-27T15:26:21.043Z,28.23
2018-03-27T15:28:52.987Z,27.10
2018-03-27T15:31:24.895Z,27.27
2018-03-27T15:33:57.793Z,24.63
2018-03-27T15:36:29.700Z,25.80
2018-03-27T15:39:01.922Z,28.83
2018-03-27T15:41:34.647Z,26.83
2018-03-27T15:44:06.667Z,30.57
2018-03-27T15:46:39.560Z,27.33
2018-03-27T15:49:11.452Z,25.20
2018-03-27T15:51:44.111Z,22.90
2018-03-27T15:54:16.008Z,16.53
2018-03-27T15:56:47.915Z,17.03
2018-03-27T15:59:19.800Z,16.80
2018-03-27T16:01:51.680Z,17.50
2018-03-27T16:04:23.565Z,16.70
2018-03-27T16:06:55.447Z,15.33
2018-03-27T16:09:28.108Z,16.30
2018-03-27T16:12:00.751Z,15.43
2018-03-27T16:14:32.764Z,16.57
2018-03-27T16:17:05.441Z,17.57
2018-03-27T16:19:38.335Z,16.83
2018-03-27T16:22:10.257Z,19.37
2018-03-27T16:24:42.133Z,17.03
2018-03-27T16:27:14.837Z,15.70
2018-03-27T16:29:47.480Z,16.67
2018-03-27T16:32:19.424Z,15.17
2018-03-27T16:34:51.303Z,14.37
2018-03-27T16:37:23.212Z,14.03
2018-03-27T16:39:55.092Z,14.90
2018-03-27T16:42:26.983Z,13.93
2018-03-27T16:44:58.902Z,15.87
2018-03-27T16:47:30.796Z,16.23
2018-03-27T16:50:02.901Z,15.37
2018-03-27T16:52:34.802Z,14.47
2018-03-27T16:55:06.700Z,15.97
2018-03-27T16:57:39.432Z,15.97
2018-03-27T17:00:11.533Z,17.90
2018-03-27T17:02:43.456Z,17.17
2018-03-27T17:05:15.338Z,11.77
2018-03-27T17:07:47.224Z,15.90
2018-03-27T17:10:19.160Z,16.60
2018-03-27T17:12:51.282Z,20.27
2018-03-27T17:15:23.444Z,16.73
2018-03-27T17:17:55.455Z,19.20
2018-03-27T17:20:27.333Z,18.37
2018-03-27T17:22:59.234Z,17.87
2018-03-27T17:25:31.107Z,21.97
2018-03-27T17:28:02.995Z,20.20
2018-03-27T17:30:34.888Z,17.57
2018-03-27T17:33:07.549Z,20.47
2018-03-27T17:35:39.427Z,20.90
2018-03-27T17:38:11.320Z,19.27
2018-03-27T17:40:43.191Z,19.80
2018-03-27T17:43:15.078Z,19.67
2018-03-27T17:45:47.014Z,21.03
2018-03-27T17:48:18.892Z,23.67
2018-03-27T17:50:50.802Z,18.80
2018-03-27T17:53:23.460Z,20.73
2018-03-27T17:55:56.374Z,20.33
2018-03-27T17:58:28.258Z,24.97
2018-03-27T18:01:00.218Z,22.60
2018-03-27T18:03:32.260Z,29.70
2018-03-27T18:06:04.323Z,27.80
2018-03-27T18:08:36.363Z,32.23
2018-03-27T18:11:09.357Z,26.33
2018-03-27T18:13:41.413Z,33.97
2018-03-27T18:16:14.182Z,35.60
2018-03-27T18:18:46.999Z,29.73
2018-03-27T18:21:19.286Z,35.77
2018-03-27T18:23:51.313Z,36.17
2018-03-27T18:26:23.389Z,41.43
2018-03-27T18:28:55.437Z,45.67
2018-03-27T18:31:28.214Z,39.67
2018-03-27T18:34:00.127Z,51.37
2018-03-27T18:36:32.000Z,45.93
2018-03-27T18:39:03.892Z,47.97
2018-03-27T18:41:35.769Z,49.50
2018-03-27T18:44:08.664Z,52.87
2018-03-27T18:46:40.832Z,52.80
2018-03-27T18:49:12.726Z,51.33
2018-03-27T18:51:44.963Z,52.00
2018-03-27T18:54:16.858Z,48.23
2018-03-27T18:56:48.737Z,56.30
2018-03-27T18:59:20.620Z,52.20
2018-03-27T19:01:53.260Z,53.43
2018-03-27T19:04:25.161Z,48.10
2018-03-27T19:06:58.068Z,48.90
2018-03-27T19:09:29.971Z,50.13
2018-03-27T19:12:02.088Z,51.73
2018-03-27T19:14:33.976Z,49.50
2018-03-27T19:17:05.852Z,50.10
2018-03-27T19:19:37.737Z,44.90
2018-03-27T19:22:09.620Z,49.33
2018-03-27T19:24:42.293Z,47.90
2018-03-27T19:27:14.943Z,49.93
2018-03-27T19:29:46.840Z,49.27
2018-03-27T19:32:19.479Z,43.40
2018-03-27T19:34:51.693Z,45.20
2018-03-27T19:37:23.576Z,43.53
2018-03-27T19:39:55.470Z,40.17
2018-03-27T19:42:27.575Z,38.17
2018-03-27T19:44:59.463Z,36.50
2018-03-27T19:47:31.345Z,35.93
2018-03-27T19:50:03.239Z,38.30
2018-03-27T19:52:35.892Z,34.60
2018-03-27T19:55:07.785Z,34.47
2018-03-27T19:57:40.423Z,34.53
2018-03-27T20:00:12.548Z,36.23
2018-03-27T20:02:44.472Z,37.30
2018-03-27T20:05:16.360Z,37.33
2018-03-27T20:07:48.235Z,40.63
2018-03-27T20:10:20.129Z,39.17
2018-03-27T20:12:52.003Z,47.20
2018-03-27T20:15:24.097Z,41.93
2018-03-27T20:17:56.992Z,42.57
2018-03-27T20:20:28.893Z,45.80
2018-03-27T20:23:00.774Z,44.00
2018-03-27T20:25:32.695Z,44.57
2018-03-27T20:28:04.699Z,47.90
2018-03-27T20:30:36.598Z,46.20
2018-03-27T20:33:08.764Z,49.70
2018-03-27T20:35:40.661Z,46.43
2018-03-27T20:38:12.808Z,49.43
2018-03-27T20:40:44.687Z,44.90
2018-03-27T20:43:16.822Z,46.43
2018-03-27T20:45:48.984Z,48.37
2018-03-27T20:48:20.855Z,48.47
2018-03-27T20:50:52.741Z,48.43
2018-03-27T20:53:24.613Z,50.23
2018-03-27T20:55:56.499Z,47.47
2018-03-27T20:58:29.162Z,47.60
2018-03-27T21:01:01.052Z,51.80
2018-03-27T21:03:33.739Z,42.93
2018-03-27T21:06:05.638Z,51.10
2018-03-27T21:08:37.517Z,42.13
2018-03-27T21:11:09.739Z,44.73
2018-03-27T21:13:41.620Z,50.73
